Station: Fowlers Gap  

  Atmospheric Gas Attenuation - ITU Rec 676-11   ----------------- dB/100km -----------------
Date Time Temp RH % AH g/m3 Dew Point Wind Direction Speed kph Gust kph Barometer mB Rainfall Since 9am 24GHz 47GHz 76GHz 122GHz 134GHz 241GHz
08/05 12:30 16.8 53 7.58 7.2 19 28 1029 0 17.3 24.0 35.1 91.8 83.1 285.1
08/05 12:20 16.6 55 7.77 7.5 19 24 1029.1 0 17.7 24.4 35.9 93.9 85.7 294.1
08/05 12:10 16.1 56 7.68 7.3 19 24 1029.3 0 17.5 24.4 35.8 93.6 85.1 292.1
08/05 12:00 15.9 56 7.58 7.1 20 28 1029.3 0 17.3 24.3 35.5 92.8 84.1 288.4
08/05 11:50 15.6 56 7.45 6.9 20 26 1029.5 0 17.0 24.2 35.2 91.9 82.8 283.8
08/05 11:40 15.6 57 7.58 7.1 20 24 1029.7 0 17.3 24.4 35.7 93.2 84.4 289.6
08/05 11:30 15 57 7.31 6.6 22 32 1029.9 0 16.8 24.1 34.9 91.2 81.7 279.9
08/05 11:20 15 58 7.44 6.8 19 24 1030.1 0 17.1 24.3 35.4 92.5 83.3 285.7
08/05 11:10 15.1 58 7.48 6.9 22 32 1030.1 0 17.1 24.4 35.5 92.8 83.7 287.1
08/05 11:00 15.4 58 7.62 7.2 24 33 1030.3 0 17.4 24.5 35.9 93.9 85.2 292.2
08/05 10:50 14.7 59 7.43 6.8 26 30 1030.4 0 17.0 24.4 35.5 92.8 83.5 286.4
08/05 10:40 14.8 59 7.47 6.9 24 30 1030.4 0 17.1 24.5 35.6 93.1 83.9 287.8
08/05 10:30 14.5 61 7.59 7.1 24 32 1030.5 0 17.4 24.7 36.2 94.7 85.8 294.2
08/05 10:20 13.8 61 7.27 6.4 24 28 1030.6 0 16.7 24.4 35.3 92.2 82.5 282.5
08/05 10:10 13.8 62 7.39 6.7 24 28 1030.6 0 17.0 24.6 35.8 93.4 84.0 287.9
08/05 10:00 13.4 64 7.44 6.7 22 32 1030.6 0 17.1 24.8 36.1 94.4 85.1 291.6
08/05 09:50 13 64 7.26 6.4 24 32 1030.5 0 16.8 24.6 35.6 93.0 83.2 284.9
08/05 09:40 13.1 65 7.42 6.7 24 28 1030.5 0 17.1 24.8 36.2 94.6 85.1 291.7
08/05 09:30 12.6 66 7.3 6.4 24 32 1030.5 0 16.9 24.8 36.0 93.9 84.1 288.1
08/05 09:20 12.3 67 7.28 6.4 24 32 1030.5 0 16.8 24.8 36.0 94.1 84.2 288.3
08/05 09:10 12 69 7.35 6.5 20 26 1030.4 0 17.0 25.0 36.4 95.1 85.4 292.6
08/05 09:00 11.2 71 7.2 6.1 13 17 1030.3 0 16.7 25.0 36.2 94.5 84.3 288.6
08/05 08:50 10.5 72 6.98 5.7 11 13 1030.3 0 16.3 24.9 35.6 93.0 82.2 281.0
08/05 08:40 9.6 75 6.87 5.4 11 13 1030.2 0 16.1 24.9 35.6 92.9 81.7 279.1
08/05 08:30 9 77 6.79 5.2 13 15 1030.2 0 15.9 25.0 35.5 92.7 81.2 277.5
08/05 08:20 8.4 79 6.7 5 13 15 1030 0 15.8 25.0 35.4 92.4 80.6 275.3
08/05 08:10 7.7 81 6.57 4.7 9 11 1029.9 0 15.5 25.0 35.2 91.8 79.6 271.6
08/05 08:00 6.9 82 6.32 4 7 9 1029.7 0 15.0 24.8 34.5 90.0 77.0 262.5
08/05 07:50 6.4 83 6.19 3.7 7 9 1029.5 0 14.7 24.7 34.2 89.1 75.8 258.0
08/05 07:40 5.9 83 5.99 3.2 11 13 1029.4 0 14.3 24.5 33.6 87.5 73.5 250.1
08/05 07:30 6.3 83 6.15 3.6 11 13 1029.4 0 14.7 24.6 34.1 88.8 75.3 256.4
08/05 07:20 6.1 85 6.21 3.8 11 11 1029.2 0 14.8 24.8 34.4 89.7 76.3 259.8
08/05 07:10 5.8 82 5.88 3 6 7 1029.1 0 14.1 24.3 33.2 86.4 72.1 245.2
08/05 07:00 6.3 81 6 3.3 6 11 1029 0 14.3 24.4 33.4 87.1 73.3 249.2
08/05 06:50 7.2 81 6.36 4.2 9 11 1029 0 15.1 24.7 34.5 90.0 77.2 263.2
08/05 06:40 6.8 85 6.5 4.5 13 15 1029 0 15.4 25.1 35.3 92.0 79.5 271.2
08/05 06:30 5.4 82 5.73 2.6 6 11 1029 0 13.8 24.2 32.7 85.2 70.5 239.4
08/05 06:20 5.5 82 5.76 2.7 6 6 1028.9 0 13.9 24.2 32.8 85.4 70.8 240.4
08/05 06:10 5.3 82 5.69 2.5 7 7 1028.9 0 13.7 24.1 32.6 84.9 70.0 237.8
08/05 06:00 5.1 81 5.54 2.1 7 9 1028.9 0 13.4 23.9 32.1 83.5 68.2 231.3
08/05 05:50 5.2 80 5.51 2 9 9 1029 0 13.3 23.9 31.9 83.0 67.7 229.6
08/05 05:40 5.3 79 5.48 2 11 11 1029 0 13.3 23.8 31.7 82.6 67.3 228.0
08/05 05:30 5 80 5.44 1.8 9 11 1029.1 0 13.2 23.8 31.7 82.5 67.0 227.0
08/05 05:20 5 77 5.24 1.3 11 11 1029.2 0 12.8 23.5 30.9 80.4 64.4 217.7
08/05 05:10 5.3 76 5.27 1.4 11 11 1029.2 0 12.8 23.5 30.9 80.4 64.5 218.3
08/05 05:00 5.5 77 5.41 1.8 9 11 1029 0 13.1 23.6 31.4 81.6 66.2 224.1
08/05 04:50 5.3 74 5.13 1.1 9 9 1029.1 0 12.5 23.2 30.4 78.9 62.7 211.8
08/05 04:40 5.5 74 5.2 1.2 9 9 1029 0 12.7 23.3 30.6 79.4 63.4 214.5
08/05 04:30 5.6 73 5.16 1.2 6 7 1029 0 12.6 23.2 30.4 78.9 62.8 212.4
08/05 04:20 5.8 74 5.3 1.5 6 7 1029 0 12.9 23.4 30.8 80.2 64.5 218.2
08/05 04:10 5.8 73 5.23 1.3 7 9 1029 0 12.7 23.3 30.6 79.4 63.6 215.0
08/05 04:00 5.6 74 5.23 1.3 11 13 1029 0 12.7 23.3 30.6 79.6 63.7 215.6
08/05 03:50 4.9 75 5.07 0.9 11 13 1028.9 0 12.4 23.2 30.3 78.6 62.2 210.1
08/05 03:40 4.3 76 4.93 0.5 9 9 1029 0 12.1 23.2 29.9 77.8 60.8 205.2
08/05 03:30 4 77 4.9 0.3 7 11 1028.9 0 12.1 23.2 29.9 77.7 60.7 204.6
08/05 03:20 3.9 76 4.8 0.1 7 7 1029 0 11.9 23.1 29.6 76.8 59.4 200.3
08/05 03:10 3.9 76 4.8 0.1 7 9 1029 0 11.9 23.1 29.6 76.8 59.4 200.3
08/05 03:00 4.3 75 4.87 0.3 7 11 1029 0 12.0 23.1 29.7 77.1 60.0 202.5
08/05 02:50 4.3 75 4.87 0.3 0 0 1028.9 0 12.0 23.1 29.7 77.1 60.0 202.5
08/05 02:40 3.8 74 4.65 -0.4 0 0 1029 0 11.5 22.8 29.0 75.3 57.5 193.6
08/05 02:30 4.3 75 4.87 0.3 0 0 1029 0 12.0 23.1 29.7 77.1 60.0 202.5
08/05 02:20 4.2 75 4.84 0.2 0 0 1029 0 11.9 23.1 29.6 76.9 59.7 201.3
08/05 02:10 4.3 74 4.8 0.1 0 0 1029 0 11.8 23.0 29.4 76.4 59.1 199.3
08/05 02:00 4.4 74 4.84 0.2 0 0 1029 0 11.9 23.0 29.5 76.7 59.6 200.8
08/05 01:50 4.2 73 4.71 -0.2 0 0 1029.1 0 11.6 22.8 29.1 75.5 58.0 195.4
08/05 01:40 4.8 72 4.83 0.2 7 7 1029.1 0 11.9 22.9 29.4 76.2 59.1 199.4
08/05 01:30 4.8 71 4.76 0 6 7 1029.2 0 11.7 22.8 29.1 75.5 58.2 196.2
08/05 01:20 4.7 71 4.73 -0.1 4 7 1029 0 11.7 22.7 29.0 75.3 57.9 195.1
08/05 01:10 4.8 71 4.76 0 6 7 1029.1 0 11.7 22.8 29.1 75.5 58.2 196.2
08/05 01:00 5.1 70 4.79 0.1 9 11 1029 0 11.8 22.7 29.1 75.5 58.4 196.8
08/05 00:50 4.9 70 4.73 -0.1 11 11 1029 0 11.7 22.7 28.9 75.1 57.8 194.6
08/05 00:40 5.4 68 4.75 0 6 7 1029.1 0 11.7 22.6 28.8 74.8 57.7 194.3
08/05 00:20 5.6 67 4.74 0 6 6 1029.2 0 11.7 22.5 28.7 74.5 57.4 193.4
08/05 00:10 5.8 67 4.8 0.2 7 7 1029.2 0 11.8 22.6 28.9 75.0 58.0 195.6
08/05 00:00 6 66 4.79 0.1 9 11 1029.2 0 11.8 22.5 28.8 74.7 57.7 194.6
07/05 23:50 6 65 4.72 -0.1 9 11 1029.3 0 11.6 22.4 28.5 74.0 56.9 191.5
07/05 23:40 5.9 65 4.69 -0.2 9 9 1029.3 0 11.5 22.4 28.4 73.7 56.5 190.4
07/05 23:30 6.5 63 4.73 0 9 11 1029.3 0 11.6 22.3 28.4 73.6 56.6 190.8
07/05 23:20 6.6 62 4.68 -0.1 11 11 1029.3 0 11.5 22.2 28.2 73.0 55.9 188.3
07/05 23:10 6.7 63 4.79 0.2 9 11 1029.3 0 11.7 22.4 28.5 74.0 57.2 193.0
07/05 23:00 6.6 63 4.76 0.1 11 13 1029.3 0 11.7 22.3 28.5 73.8 56.9 191.9
07/05 22:50 6.6 62 4.68 -0.1 11 11 1029.4 0 11.5 22.2 28.2 73.0 55.9 188.3
07/05 22:40 7.1 61 4.76 0.1 7 9 1029.5 0 11.7 22.2 28.3 73.4 56.6 190.7
07/05 22:30 6.5 62 4.65 -0.2 6 7 1029.5 0 11.4 22.2 28.1 72.8 55.6 187.3
07/05 22:20 6.7 60 4.56 -0.5 6 7 1029.5 0 11.2 22.0 27.7 71.7 54.4 182.8
07/05 22:10 6.6 60 4.53 -0.6 7 7 1029.4 0 11.2 22.0 27.6 71.5 54.0 181.7
07/05 22:00 7.1 60 4.68 -0.1 6 7 1029.4 0 11.5 22.1 28.0 72.5 55.6 187.2
07/05 21:50 7.1 60 4.68 -0.1 6 6 1029.4 0 11.5 22.1 28.0 72.5 55.6 187.2
07/05 21:40 7.9 55 4.52 -0.6 6 6 1029.3 0 11.1 21.7 27.1 70.2 53.0 178.4
07/05 21:30 8.2 55 4.61 -0.3 0 0 1029.3 0 11.3 21.7 27.3 70.8 53.9 181.6
07/05 21:20 8.2 55 4.61 -0.3 0 0 1029.3 0 11.3 21.7 27.3 70.8 53.9 181.6
07/05 21:10 8 55 4.55 -0.5 6 6 1029.3 0 11.2 21.7 27.2 70.4 53.3 179.4
07/05 21:00 8.4 54 4.58 -0.4 6 7 1029.3 0 11.2 21.6 27.2 70.4 53.4 179.8
07/05 20:50 8.9 51 4.47 -0.7 6 6 1029.2 0 11.0 21.3 26.6 68.9 51.8 174.0
07/05 20:40 8.9 51 4.47 -0.7 7 9 1029.1 0 11.0 21.3 26.6 68.8 51.8 174.0
07/05 20:30 9.1 50 4.44 -0.8 9 11 1029.1 0 10.9 21.3 26.4 68.4 51.3 172.3
07/05 20:20 9.3 49 4.4 -0.8 11 11 1029 0 10.8 21.1 26.2 67.8 50.7 170.2
07/05 20:10 9.4 49 4.43 -0.8 9 11 1028.9 0 10.9 21.2 26.3 68.0 51.0 171.2
07/05 20:00 9.8 47 4.36 -1 9 11 1028.9 0 10.7 21.0 25.9 67.0 49.9 167.5
07/05 19:50 10.3 45 4.31 -1.1 11 11 1028.8 0 10.6 20.8 25.6 66.1 49.0 164.3

Last Refresh: 08-May-2026 12:08:30

Bureau of Meteorology